sensor_id;sensor_type;location;lat;lon;timestamp;temperature;humidity
15103;DHT22;7652;53.584;9.998;2023-02-20T00:01:56;6.70;99.90
15103;DHT22;7652;53.584;9.998;2023-02-20T00:04:59;6.70;99.90
15103;DHT22;7652;53.584;9.998;2023-02-20T00:08:04;6.70;99.90
15103;DHT22;7652;53.584;9.998;2023-02-20T00:11:07;6.70;99.90
15103;DHT22;7652;53.584;9.998;2023-02-20T00:14:10;6.70;99.90
15103;DHT22;7652;53.584;9.998;2023-02-20T00:17:13;6.70;99.90
15103;DHT22;7652;53.584;9.998;2023-02-20T00:20:17;6.80;99.90
15103;DHT22;7652;53.584;9.998;2023-02-20T00:23:22;6.70;99.90
15103;DHT22;7652;53.584;9.998;2023-02-20T00:26:25;6.80;99.90
15103;DHT22;7652;53.584;9.998;2023-02-20T00:29:28;6.80;99.90
15103;DHT22;7652;53.584;9.998;2023-02-20T00:32:33;6.70;99.90
15103;DHT22;7652;53.584;9.998;2023-02-20T00:35:36;6.80;99.90
15103;DHT22;7652;53.584;9.998;2023-02-20T00:38:42;6.80;99.90
15103;DHT22;7652;53.584;9.998;2023-02-20T00:41:45;6.80;99.90
15103;DHT22;7652;53.584;9.998;2023-02-20T00:44:49;6.80;99.90
15103;DHT22;7652;53.584;9.998;2023-02-20T00:47:52;6.80;99.90
15103;DHT22;7652;53.584;9.998;2023-02-20T00:50:55;6.80;99.90
15103;DHT22;7652;53.584;9.998;2023-02-20T00:53:59;6.80;99.90
15103;DHT22;7652;53.584;9.998;2023-02-20T00:57:02;6.80;99.90
15103;DHT22;7652;53.584;9.998;2023-02-20T01:00:08;6.80;99.90
15103;DHT22;7652;53.584;9.998;2023-02-20T01:03:11;6.70;99.90
15103;DHT22;7652;53.584;9.998;2023-02-20T01:06:15;6.80;99.90
15103;DHT22;7652;53.584;9.998;2023-02-20T01:09:19;6.80;99.90
15103;DHT22;7652;53.584;9.998;2023-02-20T01:12:22;6.80;99.90
15103;DHT22;7652;53.584;9.998;2023-02-20T01:15:25;6.80;99.90
15103;DHT22;7652;53.584;9.998;2023-02-20T01:18:28;6.80;99.90
15103;DHT22;7652;53.584;9.998;2023-02-20T01:21:31;6.80;99.90
15103;DHT22;7652;53.584;9.998;2023-02-20T01:24:36;6.90;99.90
15103;DHT22;7652;53.584;9.998;2023-02-20T01:27:39;6.90;99.90
15103;DHT22;7652;53.584;9.998;2023-02-20T01:30:42;6.90;99.90
15103;DHT22;7652;53.584;9.998;2023-02-20T01:33:45;6.90;99.90
15103;DHT22;7652;53.584;9.998;2023-02-20T01:36:49;6.90;99.90
15103;DHT22;7652;53.584;9.998;2023-02-20T01:39:54;6.90;99.90
15103;DHT22;7652;53.584;9.998;2023-02-20T01:42:57;7.00;99.90
15103;DHT22;7652;53.584;9.998;2023-02-20T01:49:55;7.00;99.90
15103;DHT22;7652;53.584;9.998;2023-02-20T01:53:02;7.10;99.90
15103;DHT22;7652;53.584;9.998;2023-02-20T01:56:08;7.10;99.90
15103;DHT22;7652;53.584;9.998;2023-02-20T01:59:15;7.10;99.90
15103;DHT22;7652;53.584;9.998;2023-02-20T02:02:19;7.10;99.90
15103;DHT22;7652;53.584;9.998;2023-02-20T02:05:24;7.10;99.90
15103;DHT22;7652;53.584;9.998;2023-02-20T02:08:28;7.10;99.90
15103;DHT22;7652;53.584;9.998;2023-02-20T02:11:32;7.10;99.90
15103;DHT22;7652;53.584;9.998;2023-02-20T02:14:37;7.10;99.90
15103;DHT22;7652;53.584;9.998;2023-02-20T02:17:57;7.20;99.90
15103;DHT22;7652;53.584;9.998;2023-02-20T02:21:46;7.20;99.90
15103;DHT22;7652;53.584;9.998;2023-02-20T02:25:17;7.20;99.90
15103;DHT22;7652;53.584;9.998;2023-02-20T02:29:01;7.20;99.90
15103;DHT22;7652;53.584;9.998;2023-02-20T02:32:26;7.30;99.90
15103;DHT22;7652;53.584;9.998;2023-02-20T02:36:10;7.40;99.90
15103;DHT22;7652;53.584;9.998;2023-02-20T02:39:22;7.30;99.90
15103;DHT22;7652;53.584;9.998;2023-02-20T02:42:35;7.40;99.90
15103;DHT22;7652;53.584;9.998;2023-02-20T02:45:47;7.40;99.90
15103;DHT22;7652;53.584;9.998;2023-02-20T02:48:56;7.50;99.90
15103;DHT22;7652;53.584;9.998;2023-02-20T02:52:03;7.50;99.90
15103;DHT22;7652;53.584;9.998;2023-02-20T02:55:08;7.40;99.90
15103;DHT22;7652;53.584;9.998;2023-02-20T02:58:12;7.40;99.90
15103;DHT22;7652;53.584;9.998;2023-02-20T03:01:17;7.40;99.90
15103;DHT22;7652;53.584;9.998;2023-02-20T03:04:23;7.40;99.90
15103;DHT22;7652;53.584;9.998;2023-02-20T03:07:28;7.50;99.90
15103;DHT22;7652;53.584;9.998;2023-02-20T03:10:33;7.40;99.90
15103;DHT22;7652;53.584;9.998;2023-02-20T03:13:39;7.30;99.90
15103;DHT22;7652;53.584;9.998;2023-02-20T03:17:07;7.40;99.90
15103;DHT22;7652;53.584;9.998;2023-02-20T03:20:15;7.40;99.90
15103;DHT22;7652;53.584;9.998;2023-02-20T03:23:23;7.40;99.90
15103;DHT22;7652;53.584;9.998;2023-02-20T03:26:31;7.30;99.90
15103;DHT22;7652;53.584;9.998;2023-02-20T03:29:36;7.40;99.90
15103;DHT22;7652;53.584;9.998;2023-02-20T03:32:41;7.40;99.90
15103;DHT22;7652;53.584;9.998;2023-02-20T03:36:05;7.40;99.90
15103;DHT22;7652;53.584;9.998;2023-02-20T03:39:31;7.40;99.90
15103;DHT22;7652;53.584;9.998;2023-02-20T03:42:54;7.40;99.90
15103;DHT22;7652;53.584;9.998;2023-02-20T03:46:20;7.40;99.90
15103;DHT22;7652;53.584;9.998;2023-02-20T03:49:28;7.50;99.90
15103;DHT22;7652;53.584;9.998;2023-02-20T03:52:33;7.50;99.90
15103;DHT22;7652;53.584;9.998;2023-02-20T03:55:38;7.40;99.90
15103;DHT22;7652;53.584;9.998;2023-02-20T03:58:46;7.50;99.90
15103;DHT22;7652;53.584;9.998;2023-02-20T04:01:53;7.50;99.90
15103;DHT22;7652;53.584;9.998;2023-02-20T04:05:00;7.50;99.90
15103;DHT22;7652;53.584;9.998;2023-02-20T04:08:08;7.50;99.90
15103;DHT22;7652;53.584;9.998;2023-02-20T04:11:17;7.60;99.90
15103;DHT22;7652;53.584;9.998;2023-02-20T04:14:22;7.60;99.90
15103;DHT22;7652;53.584;9.998;2023-02-20T04:17:30;7.60;99.90
15103;DHT22;7652;53.584;9.998;2023-02-20T04:20:34;7.60;99.90
15103;DHT22;7652;53.584;9.998;2023-02-20T04:23:40;7.50;99.90
15103;DHT22;7652;53.584;9.998;2023-02-20T04:26:47;7.50;99.90
15103;DHT22;7652;53.584;9.998;2023-02-20T04:29:50;7.40;99.90
15103;DHT22;7652;53.584;9.998;2023-02-20T04:32:53;7.40;99.90
15103;DHT22;7652;53.584;9.998;2023-02-20T04:35:56;7.30;99.90
15103;DHT22;7652;53.584;9.998;2023-02-20T04:39:00;7.40;99.90
15103;DHT22;7652;53.584;9.998;2023-02-20T04:42:04;7.40;99.90
15103;DHT22;7652;53.584;9.998;2023-02-20T04:45:08;7.40;99.90
15103;DHT22;7652;53.584;9.998;2023-02-20T04:48:11;7.30;99.90
15103;DHT22;7652;53.584;9.998;2023-02-20T04:51:14;7.30;99.90
15103;DHT22;7652;53.584;9.998;2023-02-20T04:54:17;7.40;99.90
15103;DHT22;7652;53.584;9.998;2023-02-20T04:57:21;7.40;99.90
15103;DHT22;7652;53.584;9.998;2023-02-20T05:00:25;7.40;99.90
15103;DHT22;7652;53.584;9.998;2023-02-20T05:03:28;7.40;99.90
15103;DHT22;7652;53.584;9.998;2023-02-20T05:06:31;7.50;99.90
15103;DHT22;7652;53.584;9.998;2023-02-20T05:09:34;7.40;99.90
15103;DHT22;7652;53.584;9.998;2023-02-20T05:12:38;7.50;99.90
15103;DHT22;7652;53.584;9.998;2023-02-20T05:15:41;7.40;99.90
15103;DHT22;7652;53.584;9.998;2023-02-20T05:18:44;7.40;99.90
15103;DHT22;7652;53.584;9.998;2023-02-20T05:21:47;7.40;99.90
15103;DHT22;7652;53.584;9.998;2023-02-20T05:25:08;7.50;99.90
15103;DHT22;7652;53.584;9.998;2023-02-20T05:28:12;7.50;99.90
15103;DHT22;7652;53.584;9.998;2023-02-20T05:31:15;7.50;99.90
15103;DHT22;7652;53.584;9.998;2023-02-20T05:34:19;7.40;99.90
15103;DHT22;7652;53.584;9.998;2023-02-20T05:37:25;7.50;99.90
15103;DHT22;7652;53.584;9.998;2023-02-20T05:40:28;7.50;99.90
15103;DHT22;7652;53.584;9.998;2023-02-20T05:43:32;7.50;99.90
15103;DHT22;7652;53.584;9.998;2023-02-20T05:46:39;7.60;99.90
15103;DHT22;7652;53.584;9.998;2023-02-20T05:49:42;7.60;99.90
15103;DHT22;7652;53.584;9.998;2023-02-20T05:52:45;7.60;99.90
15103;DHT22;7652;53.584;9.998;2023-02-20T05:55:48;7.60;99.90
15103;DHT22;7652;53.584;9.998;2023-02-20T05:58:53;7.60;99.90
15103;DHT22;7652;53.584;9.998;2023-02-20T06:01:56;7.60;99.90
15103;DHT22;7652;53.584;9.998;2023-02-20T06:05:00;7.50;99.90
15103;DHT22;7652;53.584;9.998;2023-02-20T06:08:03;7.50;99.90
15103;DHT22;7652;53.584;9.998;2023-02-20T06:11:08;7.60;99.90
15103;DHT22;7652;53.584;9.998;2023-02-20T06:14:12;7.60;99.90
15103;DHT22;7652;53.584;9.998;2023-02-20T06:17:17;7.50;99.90
15103;DHT22;7652;53.584;9.998;2023-02-20T06:20:21;7.50;99.90
15103;DHT22;7652;53.584;9.998;2023-02-20T06:23:24;7.60;99.90
15103;DHT22;7652;53.584;9.998;2023-02-20T06:26:27;7.60;99.90
15103;DHT22;7652;53.584;9.998;2023-02-20T06:29:31;7.60;99.90
15103;DHT22;7652;53.584;9.998;2023-02-20T06:32:34;7.60;99.90
15103;DHT22;7652;53.584;9.998;2023-02-20T06:35:37;7.60;99.90
15103;DHT22;7652;53.584;9.998;2023-02-20T06:38:40;7.60;99.90
15103;DHT22;7652;53.584;9.998;2023-02-20T06:41:43;7.60;99.90
15103;DHT22;7652;53.584;9.998;2023-02-20T06:44:48;7.70;99.90
15103;DHT22;7652;53.584;9.998;2023-02-20T06:47:51;7.70;99.90
15103;DHT22;7652;53.584;9.998;2023-02-20T06:50:54;7.80;99.90
15103;DHT22;7652;53.584;9.998;2023-02-20T06:53:58;7.80;99.90
15103;DHT22;7652;53.584;9.998;2023-02-20T06:57:02;7.90;99.90
15103;DHT22;7652;53.584;9.998;2023-02-20T07:00:07;8.00;99.90
15103;DHT22;7652;53.584;9.998;2023-02-20T07:03:10;8.00;99.90
15103;DHT22;7652;53.584;9.998;2023-02-20T07:06:14;8.10;99.90
15103;DHT22;7652;53.584;9.998;2023-02-20T07:09:17;8.20;99.90
15103;DHT22;7652;53.584;9.998;2023-02-20T07:12:20;8.20;99.90
15103;DHT22;7652;53.584;9.998;2023-02-20T07:15:25;8.20;99.90
15103;DHT22;7652;53.584;9.998;2023-02-20T07:18:28;8.30;99.90
15103;DHT22;7652;53.584;9.998;2023-02-20T07:21:31;8.30;99.90
15103;DHT22;7652;53.584;9.998;2023-02-20T07:24:34;8.30;99.90
15103;DHT22;7652;53.584;9.998;2023-02-20T07:27:37;8.30;99.90
15103;DHT22;7652;53.584;9.998;2023-02-20T07:30:41;8.30;99.90
15103;DHT22;7652;53.584;9.998;2023-02-20T07:33:45;8.40;99.90
15103;DHT22;7652;53.584;9.998;2023-02-20T07:36:48;8.40;99.90
15103;DHT22;7652;53.584;9.998;2023-02-20T07:39:51;8.40;99.90
15103;DHT22;7652;53.584;9.998;2023-02-20T07:42:54;8.40;99.90
15103;DHT22;7652;53.584;9.998;2023-02-20T07:45:58;8.50;99.90
15103;DHT22;7652;53.584;9.998;2023-02-20T07:49:02;8.50;99.90
15103;DHT22;7652;53.584;9.998;2023-02-20T07:52:06;8.40;99.90
15103;DHT22;7652;53.584;9.998;2023-02-20T07:55:11;8.40;99.90
15103;DHT22;7652;53.584;9.998;2023-02-20T07:58:14;8.50;99.90
15103;DHT22;7652;53.584;9.998;2023-02-20T08:01:19;8.50;99.90
15103;DHT22;7652;53.584;9.998;2023-02-20T08:04:22;8.50;99.90
15103;DHT22;7652;53.584;9.998;2023-02-20T08:07:25;8.50;99.90
15103;DHT22;7652;53.584;9.998;2023-02-20T08:10:28;8.50;99.90
15103;DHT22;7652;53.584;9.998;2023-02-20T08:13:31;8.50;99.90
15103;DHT22;7652;53.584;9.998;2023-02-20T08:16:35;8.60;99.90
15103;DHT22;7652;53.584;9.998;2023-02-20T08:19:38;8.60;99.90
15103;DHT22;7652;53.584;9.998;2023-02-20T08:22:43;8.60;99.90
15103;DHT22;7652;53.584;9.998;2023-02-20T08:25:46;8.60;99.90
15103;DHT22;7652;53.584;9.998;2023-02-20T08:28:50;8.70;99.90
15103;DHT22;7652;53.584;9.998;2023-02-20T08:31:54;8.70;99.90
15103;DHT22;7652;53.584;9.998;2023-02-20T08:34:57;8.70;99.90
15103;DHT22;7652;53.584;9.998;2023-02-20T08:38:01;8.70;99.90
15103;DHT22;7652;53.584;9.998;2023-02-20T08:41:06;8.70;99.90
15103;DHT22;7652;53.584;9.998;2023-02-20T08:44:10;8.80;99.90
15103;DHT22;7652;53.584;9.998;2023-02-20T08:47:18;8.80;99.90
15103;DHT22;7652;53.584;9.998;2023-02-20T08:50:21;8.80;99.90
15103;DHT22;7652;53.584;9.998;2023-02-20T08:53:24;8.80;99.90
15103;DHT22;7652;53.584;9.998;2023-02-20T08:56:27;8.90;99.90
15103;DHT22;7652;53.584;9.998;2023-02-20T08:59:30;8.90;99.90
15103;DHT22;7652;53.584;9.998;2023-02-20T09:02:35;8.90;99.90
15103;DHT22;7652;53.584;9.998;2023-02-20T09:05:38;8.90;99.90
15103;DHT22;7652;53.584;9.998;2023-02-20T09:08:42;9.00;99.90
15103;DHT22;7652;53.584;9.998;2023-02-20T09:11:45;8.90;99.90
15103;DHT22;7652;53.584;9.998;2023-02-20T09:14:48;9.00;99.90
15103;DHT22;7652;53.584;9.998;2023-02-20T09:17:52;9.00;99.90
15103;DHT22;7652;53.584;9.998;2023-02-20T09:20:55;8.90;99.90
15103;DHT22;7652;53.584;9.998;2023-02-20T09:23:58;8.80;99.90
15103;DHT22;7652;53.584;9.998;2023-02-20T09:27:02;8.80;99.90
15103;DHT22;7652;53.584;9.998;2023-02-20T09:30:08;8.80;99.90
15103;DHT22;7652;53.584;9.998;2023-02-20T09:33:14;8.70;99.90
15103;DHT22;7652;53.584;9.998;2023-02-20T09:36:18;8.70;99.90
15103;DHT22;7652;53.584;9.998;2023-02-20T09:39:21;8.80;99.90
15103;DHT22;7652;53.584;9.998;2023-02-20T09:42:30;8.80;99.90
15103;DHT22;7652;53.584;9.998;2023-02-20T09:45:36;8.70;99.90
15103;DHT22;7652;53.584;9.998;2023-02-20T09:48:53;8.70;99.90
15103;DHT22;7652;53.584;9.998;2023-02-20T09:52:03;8.70;99.90
15103;DHT22;7652;53.584;9.998;2023-02-20T09:55:11;8.80;99.90
15103;DHT22;7652;53.584;9.998;2023-02-20T09:58:21;8.80;99.90
15103;DHT22;7652;53.584;9.998;2023-02-20T10:01:25;8.80;99.90
15103;DHT22;7652;53.584;9.998;2023-02-20T10:04:35;8.90;99.90
15103;DHT22;7652;53.584;9.998;2023-02-20T10:07:42;9.00;99.90
15103;DHT22;7652;53.584;9.998;2023-02-20T10:10:48;9.00;99.90
15103;DHT22;7652;53.584;9.998;2023-02-20T10:13:55;9.10;99.90
15103;DHT22;7652;53.584;9.998;2023-02-20T10:17:14;9.10;99.90
15103;DHT22;7652;53.584;9.998;2023-02-20T10:20:30;9.10;99.90
15103;DHT22;7652;53.584;9.998;2023-02-20T10:23:42;9.20;99.90
15103;DHT22;7652;53.584;9.998;2023-02-20T10:27:02;9.20;99.90
15103;DHT22;7652;53.584;9.998;2023-02-20T10:30:10;9.30;99.90
15103;DHT22;7652;53.584;9.998;2023-02-20T10:33:20;9.40;99.90
15103;DHT22;7652;53.584;9.998;2023-02-20T10:36:28;9.50;99.90
15103;DHT22;7652;53.584;9.998;2023-02-20T10:39:33;9.50;99.90
15103;DHT22;7652;53.584;9.998;2023-02-20T10:42:41;9.60;99.90
15103;DHT22;7652;53.584;9.998;2023-02-20T10:45:53;9.70;99.90
15103;DHT22;7652;53.584;9.998;2023-02-20T10:48:58;9.80;99.90
15103;DHT22;7652;53.584;9.998;2023-02-20T10:52:06;9.80;99.90
15103;DHT22;7652;53.584;9.998;2023-02-20T10:55:34;9.90;99.90
15103;DHT22;7652;53.584;9.998;2023-02-20T10:58:47;9.90;99.90
15103;DHT22;7652;53.584;9.998;2023-02-20T11:01:55;9.90;99.90
15103;DHT22;7652;53.584;9.998;2023-02-20T11:05:01;9.90;99.90
15103;DHT22;7652;53.584;9.998;2023-02-20T11:08:06;10.00;99.90
15103;DHT22;7652;53.584;9.998;2023-02-20T11:11:31;10.00;99.90
15103;DHT22;7652;53.584;9.998;2023-02-20T11:14:41;10.10;99.90
15103;DHT22;7652;53.584;9.998;2023-02-20T11:17:49;10.00;99.90
15103;DHT22;7652;53.584;9.998;2023-02-20T11:20:53;10.10;99.90
15103;DHT22;7652;53.584;9.998;2023-02-20T11:24:20;10.10;99.90
15103;DHT22;7652;53.584;9.998;2023-02-20T11:27:24;10.10;99.90
15103;DHT22;7652;53.584;9.998;2023-02-20T11:30:29;10.20;99.90
15103;DHT22;7652;53.584;9.998;2023-02-20T11:33:34;10.20;99.90
15103;DHT22;7652;53.584;9.998;2023-02-20T11:36:42;10.20;99.90
15103;DHT22;7652;53.584;9.998;2023-02-20T11:39:48;10.30;99.90
15103;DHT22;7652;53.584;9.998;2023-02-20T11:42:51;10.30;99.90
15103;DHT22;7652;53.584;9.998;2023-02-20T11:46:07;10.40;99.90
15103;DHT22;7652;53.584;9.998;2023-02-20T11:49:22;10.40;99.90
15103;DHT22;7652;53.584;9.998;2023-02-20T11:52:25;10.50;99.90
15103;DHT22;7652;53.584;9.998;2023-02-20T11:55:30;10.50;99.90
15103;DHT22;7652;53.584;9.998;2023-02-20T11:58:33;10.60;99.90
15103;DHT22;7652;53.584;9.998;2023-02-20T12:01:37;10.60;99.90
15103;DHT22;7652;53.584;9.998;2023-02-20T12:04:43;10.70;99.90
15103;DHT22;7652;53.584;9.998;2023-02-20T12:07:55;10.70;99.90
15103;DHT22;7652;53.584;9.998;2023-02-20T12:11:04;10.70;99.90
15103;DHT22;7652;53.584;9.998;2023-02-20T12:14:11;10.80;99.90
15103;DHT22;7652;53.584;9.998;2023-02-20T12:17:20;10.80;99.90
15103;DHT22;7652;53.584;9.998;2023-02-20T12:20:28;10.80;99.90
15103;DHT22;7652;53.584;9.998;2023-02-20T12:23:38;10.80;99.90
15103;DHT22;7652;53.584;9.998;2023-02-20T12:26:51;10.80;99.90
15103;DHT22;7652;53.584;9.998;2023-02-20T12:30:05;10.80;99.90
15103;DHT22;7652;53.584;9.998;2023-02-20T12:33:40;10.90;99.90
15103;DHT22;7652;53.584;9.998;2023-02-20T12:36:52;10.90;99.90
15103;DHT22;7652;53.584;9.998;2023-02-20T12:40:08;10.90;99.90
15103;DHT22;7652;53.584;9.998;2023-02-20T12:43:25;10.90;99.90
15103;DHT22;7652;53.584;9.998;2023-02-20T12:46:35;10.90;99.90
15103;DHT22;7652;53.584;9.998;2023-02-20T12:49:52;10.90;99.90
15103;DHT22;7652;53.584;9.998;2023-02-20T12:53:06;10.90;99.90
15103;DHT22;7652;53.584;9.998;2023-02-20T12:56:18;10.90;99.90
15103;DHT22;7652;53.584;9.998;2023-02-20T12:59:27;10.90;99.90
15103;DHT22;7652;53.584;9.998;2023-02-20T13:02:35;10.90;99.90
15103;DHT22;7652;53.584;9.998;2023-02-20T13:05:45;10.90;99.90
15103;DHT22;7652;53.584;9.998;2023-02-20T13:08:55;10.90;99.90
15103;DHT22;7652;53.584;9.998;2023-02-20T13:12:03;11.00;99.90
15103;DHT22;7652;53.584;9.998;2023-02-20T13:15:24;11.00;99.90
15103;DHT22;7652;53.584;9.998;2023-02-20T13:18:34;11.00;99.90
15103;DHT22;7652;53.584;9.998;2023-02-20T13:21:38;11.10;99.90
15103;DHT22;7652;53.584;9.998;2023-02-20T13:24:41;11.10;99.90
15103;DHT22;7652;53.584;9.998;2023-02-20T13:27:44;11.10;99.90
15103;DHT22;7652;53.584;9.998;2023-02-20T13:31:05;11.00;99.90
15103;DHT22;7652;53.584;9.998;2023-02-20T13:34:35;11.00;99.90
15103;DHT22;7652;53.584;9.998;2023-02-20T13:37:53;11.00;99.90
15103;DHT22;7652;53.584;9.998;2023-02-20T13:41:05;11.00;99.90
15103;DHT22;7652;53.584;9.998;2023-02-20T13:44:38;11.00;99.90
15103;DHT22;7652;53.584;9.998;2023-02-20T13:47:43;11.00;99.90
15103;DHT22;7652;53.584;9.998;2023-02-20T13:50:46;11.00;99.90
15103;DHT22;7652;53.584;9.998;2023-02-20T13:53:50;11.00;99.90
15103;DHT22;7652;53.584;9.998;2023-02-20T13:56:59;11.00;99.90
15103;DHT22;7652;53.584;9.998;2023-02-20T14:00:20;11.00;99.90
15103;DHT22;7652;53.584;9.998;2023-02-20T14:03:28;11.00;99.90
15103;DHT22;7652;53.584;9.998;2023-02-20T14:06:31;11.00;99.90
15103;DHT22;7652;53.584;9.998;2023-02-20T14:09:34;11.00;99.90
15103;DHT22;7652;53.584;9.998;2023-02-20T14:12:38;11.00;99.90
15103;DHT22;7652;53.584;9.998;2023-02-20T14:15:46;11.00;99.90
15103;DHT22;7652;53.584;9.998;2023-02-20T14:18:55;11.00;99.90
15103;DHT22;7652;53.584;9.998;2023-02-20T14:22:22;11.00;99.90
15103;DHT22;7652;53.584;9.998;2023-02-20T14:25:26;11.00;99.90
15103;DHT22;7652;53.584;9.998;2023-02-20T14:28:32;11.00;99.90
15103;DHT22;7652;53.584;9.998;2023-02-20T14:31:36;11.00;99.90
15103;DHT22;7652;53.584;9.998;2023-02-20T14:34:46;11.10;99.90
15103;DHT22;7652;53.584;9.998;2023-02-20T14:37:57;11.10;99.90
15103;DHT22;7652;53.584;9.998;2023-02-20T14:41:11;11.10;99.90
15103;DHT22;7652;53.584;9.998;2023-02-20T14:44:15;11.10;99.90
15103;DHT22;7652;53.584;9.998;2023-02-20T14:47:19;11.10;99.90
15103;DHT22;7652;53.584;9.998;2023-02-20T14:50:28;11.00;99.90
15103;DHT22;7652;53.584;9.998;2023-02-20T14:53:31;10.90;99.90
15103;DHT22;7652;53.584;9.998;2023-02-20T14:56:34;10.90;99.90
15103;DHT22;7652;53.584;9.998;2023-02-20T14:59:37;10.90;99.90
15103;DHT22;7652;53.584;9.998;2023-02-20T15:02:42;10.90;99.90
15103;DHT22;7652;53.584;9.998;2023-02-20T15:05:49;11.00;99.90
15103;DHT22;7652;53.584;9.998;2023-02-20T15:08:57;11.10;99.90
15103;DHT22;7652;53.584;9.998;2023-02-20T15:12:18;11.00;99.90
15103;DHT22;7652;53.584;9.998;2023-02-20T15:15:22;11.00;99.90
15103;DHT22;7652;53.584;9.998;2023-02-20T15:18:33;11.00;99.90
15103;DHT22;7652;53.584;9.998;2023-02-20T15:21:40;11.00;99.90
15103;DHT22;7652;53.584;9.998;2023-02-20T15:24:44;11.00;99.90
15103;DHT22;7652;53.584;9.998;2023-02-20T15:28:03;10.90;99.90
15103;DHT22;7652;53.584;9.998;2023-02-20T15:31:20;10.80;99.90
15103;DHT22;7652;53.584;9.998;2023-02-20T15:34:25;10.60;99.90
15103;DHT22;7652;53.584;9.998;2023-02-20T15:37:32;10.50;99.90
15103;DHT22;7652;53.584;9.998;2023-02-20T15:40:44;10.30;99.90
15103;DHT22;7652;53.584;9.998;2023-02-20T15:43:47;10.20;99.90
15103;DHT22;7652;53.584;9.998;2023-02-20T15:46:52;10.20;99.90
15103;DHT22;7652;53.584;9.998;2023-02-20T15:49:55;10.20;99.90
15103;DHT22;7652;53.584;9.998;2023-02-20T15:53:00;10.10;99.90
15103;DHT22;7652;53.584;9.998;2023-02-20T15:56:04;10.10;99.90
15103;DHT22;7652;53.584;9.998;2023-02-20T15:59:09;10.00;99.90
15103;DHT22;7652;53.584;9.998;2023-02-20T16:02:14;10.00;99.90
15103;DHT22;7652;53.584;9.998;2023-02-20T16:05:20;9.90;99.90
15103;DHT22;7652;53.584;9.998;2023-02-20T16:08:25;9.90;99.90
15103;DHT22;7652;53.584;9.998;2023-02-20T16:11:34;9.90;99.90
15103;DHT22;7652;53.584;9.998;2023-02-20T16:14:38;9.80;99.90
15103;DHT22;7652;53.584;9.998;2023-02-20T16:17:41;9.80;99.90
15103;DHT22;7652;53.584;9.998;2023-02-20T16:20:44;9.80;99.90
15103;DHT22;7652;53.584;9.998;2023-02-20T16:23:48;9.80;99.90
15103;DHT22;7652;53.584;9.998;2023-02-20T16:26:52;9.80;99.90
15103;DHT22;7652;53.584;9.998;2023-02-20T16:29:56;9.80;99.90
15103;DHT22;7652;53.584;9.998;2023-02-20T16:32:59;9.80;99.90
15103;DHT22;7652;53.584;9.998;2023-02-20T16:36:02;9.80;99.90
15103;DHT22;7652;53.584;9.998;2023-02-20T16:39:09;9.70;99.90
15103;DHT22;7652;53.584;9.998;2023-02-20T16:42:30;9.70;99.90
15103;DHT22;7652;53.584;9.998;2023-02-20T16:45:34;9.70;99.90
15103;DHT22;7652;53.584;9.998;2023-02-20T16:48:38;9.70;99.90
15103;DHT22;7652;53.584;9.998;2023-02-20T16:51:44;9.70;99.90
15103;DHT22;7652;53.584;9.998;2023-02-20T16:54:54;9.70;99.90
15103;DHT22;7652;53.584;9.998;2023-02-20T16:57:57;9.70;99.90
15103;DHT22;7652;53.584;9.998;2023-02-20T17:01:01;9.70;99.90
15103;DHT22;7652;53.584;9.998;2023-02-20T17:04:04;9.70;99.90
15103;DHT22;7652;53.584;9.998;2023-02-20T17:07:10;9.70;99.90
15103;DHT22;7652;53.584;9.998;2023-02-20T17:10:14;9.70;99.90
15103;DHT22;7652;53.584;9.998;2023-02-20T17:13:17;9.70;99.90
15103;DHT22;7652;53.584;9.998;2023-02-20T17:16:20;9.70;99.90
15103;DHT22;7652;53.584;9.998;2023-02-20T17:19:35;9.70;99.90
15103;DHT22;7652;53.584;9.998;2023-02-20T17:22:38;9.60;99.90
15103;DHT22;7652;53.584;9.998;2023-02-20T17:25:44;9.60;99.90
15103;DHT22;7652;53.584;9.998;2023-02-20T17:28:47;9.60;99.90
15103;DHT22;7652;53.584;9.998;2023-02-20T17:31:50;9.60;99.90
15103;DHT22;7652;53.584;9.998;2023-02-20T17:34:53;9.60;99.90
15103;DHT22;7652;53.584;9.998;2023-02-20T17:37:56;9.60;99.90
15103;DHT22;7652;53.584;9.998;2023-02-20T17:41:01;9.60;99.90
15103;DHT22;7652;53.584;9.998;2023-02-20T17:44:04;9.60;99.90
15103;DHT22;7652;53.584;9.998;2023-02-20T17:47:07;9.60;99.90
15103;DHT22;7652;53.584;9.998;2023-02-20T17:50:11;9.60;99.90
15103;DHT22;7652;53.584;9.998;2023-02-20T17:53:14;9.60;99.90
15103;DHT22;7652;53.584;9.998;2023-02-20T17:56:18;9.60;99.90
15103;DHT22;7652;53.584;9.998;2023-02-20T17:59:22;9.60;99.90
15103;DHT22;7652;53.584;9.998;2023-02-20T18:02:25;9.60;99.90
15103;DHT22;7652;53.584;9.998;2023-02-20T18:05:28;9.60;99.90
15103;DHT22;7652;53.584;9.998;2023-02-20T18:08:31;9.60;99.90
15103;DHT22;7652;53.584;9.998;2023-02-20T18:11:36;9.60;99.90
15103;DHT22;7652;53.584;9.998;2023-02-20T18:14:39;9.60;99.90
15103;DHT22;7652;53.584;9.998;2023-02-20T18:17:42;9.60;99.90
15103;DHT22;7652;53.584;9.998;2023-02-20T18:20:45;9.50;99.90
15103;DHT22;7652;53.584;9.998;2023-02-20T18:23:48;9.50;99.90
15103;DHT22;7652;53.584;9.998;2023-02-20T18:26:53;9.60;99.90
15103;DHT22;7652;53.584;9.998;2023-02-20T18:29:56;9.60;99.90
15103;DHT22;7652;53.584;9.998;2023-02-20T18:32:59;9.60;99.90
15103;DHT22;7652;53.584;9.998;2023-02-20T18:36:03;9.60;99.90
15103;DHT22;7652;53.584;9.998;2023-02-20T18:39:09;9.50;99.90
15103;DHT22;7652;53.584;9.998;2023-02-20T18:42:15;9.60;99.90
15103;DHT22;7652;53.584;9.998;2023-02-20T18:45:19;9.50;99.90
15103;DHT22;7652;53.584;9.998;2023-02-20T18:48:24;9.60;99.90
15103;DHT22;7652;53.584;9.998;2023-02-20T18:51:28;9.60;99.90
15103;DHT22;7652;53.584;9.998;2023-02-20T18:54:31;9.60;99.90
15103;DHT22;7652;53.584;9.998;2023-02-20T18:57:36;9.60;99.90
15103;DHT22;7652;53.584;9.998;2023-02-20T19:00:39;9.60;99.90
15103;DHT22;7652;53.584;9.998;2023-02-20T19:03:42;9.60;99.90
15103;DHT22;7652;53.584;9.998;2023-02-20T19:06:45;9.60;99.90
15103;DHT22;7652;53.584;9.998;2023-02-20T19:09:50;9.60;99.90
15103;DHT22;7652;53.584;9.998;2023-02-20T19:12:56;9.60;99.90
15103;DHT22;7652;53.584;9.998;2023-02-20T19:15:59;9.60;99.90
15103;DHT22;7652;53.584;9.998;2023-02-20T19:19:02;9.60;99.90
15103;DHT22;7652;53.584;9.998;2023-02-20T19:22:05;9.60;99.90
15103;DHT22;7652;53.584;9.998;2023-02-20T19:25:08;9.60;99.90
15103;DHT22;7652;53.584;9.998;2023-02-20T19:28:13;9.60;99.90
15103;DHT22;7652;53.584;9.998;2023-02-20T19:31:16;9.60;99.90
15103;DHT22;7652;53.584;9.998;2023-02-20T19:34:19;9.60;99.90
15103;DHT22;7652;53.584;9.998;2023-02-20T19:37:22;9.60;99.90
15103;DHT22;7652;53.584;9.998;2023-02-20T19:40:25;9.70;99.90
15103;DHT22;7652;53.584;9.998;2023-02-20T19:43:30;9.60;99.90
15103;DHT22;7652;53.584;9.998;2023-02-20T19:46:33;9.70;99.90
15103;DHT22;7652;53.584;9.998;2023-02-20T19:49:37;9.70;99.90
15103;DHT22;7652;53.584;9.998;2023-02-20T19:52:40;9.70;99.90
15103;DHT22;7652;53.584;9.998;2023-02-20T19:55:43;9.70;99.90
15103;DHT22;7652;53.584;9.998;2023-02-20T19:58:47;9.70;99.90
15103;DHT22;7652;53.584;9.998;2023-02-20T20:01:51;9.70;99.90
15103;DHT22;7652;53.584;9.998;2023-02-20T20:04:55;9.70;99.90
15103;DHT22;7652;53.584;9.998;2023-02-20T20:07:57;9.70;99.90
15103;DHT22;7652;53.584;9.998;2023-02-20T20:11:01;9.70;99.90
15103;DHT22;7652;53.584;9.998;2023-02-20T20:14:05;9.70;99.90
15103;DHT22;7652;53.584;9.998;2023-02-20T20:17:08;9.70;99.90